createdAt,value
2022-10-25T00:00:20.918Z,100438.00
2022-10-25T00:02:47.712Z,100443.00
2022-10-25T00:05:16.131Z,100441.00
2022-10-25T00:07:43.065Z,100437.00
2022-10-25T00:10:10.079Z,100442.00
2022-10-25T00:12:46.325Z,100441.00
2022-10-25T00:15:14.294Z,100443.00
2022-10-25T00:17:41.967Z,100445.00
2022-10-25T00:20:10.058Z,100445.00
2022-10-25T00:22:37.377Z,100440.00
2022-10-25T00:25:05.752Z,100433.00
2022-10-25T00:27:32.624Z,100435.00
2022-10-25T00:29:59.440Z,100439.00
2022-10-25T00:32:26.202Z,100434.00
2022-10-25T00:34:53.006Z,100447.00
2022-10-25T00:37:19.760Z,100444.00
2022-10-25T00:39:46.947Z,100438.00
2022-10-25T00:42:18.976Z,100447.00
2022-10-25T00:44:50.508Z,100446.00
2022-10-25T00:47:27.235Z,100447.00
2022-10-25T00:50:10.013Z,100453.00
2022-10-25T00:52:38.989Z,100443.00
2022-10-25T00:55:06.437Z,100437.00
2022-10-25T00:57:40.292Z,100438.00
2022-10-25T01:00:07.974Z,100426.00
2022-10-25T01:02:35.089Z,100428.00
2022-10-25T01:05:02.588Z,100443.00
2022-10-25T01:07:29.389Z,100437.00
2022-10-25T01:09:56.981Z,100447.00
2022-10-25T01:12:23.759Z,100442.00
2022-10-25T01:14:51.199Z,100440.00
2022-10-25T01:17:36.365Z,100441.00
2022-10-25T01:20:30.654Z,100442.00
2022-10-25T01:23:18.200Z,100445.00
2022-10-25T01:26:18.782Z,100445.00
2022-10-25T01:29:00.854Z,100440.00
2022-10-25T01:31:42.160Z,100449.00
2022-10-25T01:34:23.856Z,100443.00
2022-10-25T01:37:00.731Z,100441.00
2022-10-25T01:39:49.336Z,100436.00
2022-10-25T01:42:45.045Z,100436.00
2022-10-25T01:45:25.466Z,100436.00
2022-10-25T01:48:15.937Z,100432.00
2022-10-25T01:50:45.607Z,100440.00
2022-10-25T01:53:12.418Z,100435.00
2022-10-25T01:55:56.352Z,100439.00
2022-10-25T01:58:38.382Z,100440.00
2022-10-25T02:01:37.606Z,100435.00
2022-10-25T02:04:16.615Z,100450.00
2022-10-25T02:06:51.593Z,100448.00
2022-10-25T02:09:24.455Z,100445.00
2022-10-25T02:11:51.988Z,100450.00
2022-10-25T02:14:38.640Z,100434.00
2022-10-25T02:17:14.549Z,100446.00
2022-10-25T02:19:46.790Z,100442.00
2022-10-25T02:22:14.704Z,100450.00
2022-10-25T02:24:44.521Z,100447.00
2022-10-25T02:27:12.111Z,100440.00
2022-10-25T02:29:39.851Z,100450.00
2022-10-25T02:32:06.888Z,100446.00
2022-10-25T02:34:34.297Z,100437.00
2022-10-25T02:37:01.354Z,100437.00
2022-10-25T02:39:31.430Z,100442.00
2022-10-25T02:42:02.307Z,100441.00
2022-10-25T02:44:29.352Z,100446.00
2022-10-25T02:46:56.188Z,100446.00
2022-10-25T02:49:23.118Z,100444.00
2022-10-25T02:54:21.703Z,100447.00
2022-10-25T02:56:52.351Z,100449.00
2022-10-25T02:59:22.511Z,100448.00
2022-10-25T03:01:49.435Z,100447.00
2022-10-25T03:04:16.355Z,100458.00
2022-10-25T03:06:43.266Z,100450.00
2022-10-25T03:09:10.030Z,100450.00
2022-10-25T03:11:36.770Z,100456.00
2022-10-25T03:14:03.526Z,100460.00
2022-10-25T03:16:30.395Z,100467.00
2022-10-25T03:18:58.306Z,100467.00
2022-10-25T03:21:25.846Z,100469.00
2022-10-25T03:23:52.806Z,100473.00
2022-10-25T03:26:19.839Z,100467.00
2022-10-25T03:28:46.630Z,100465.00
2022-10-25T03:31:15.517Z,100472.00
2022-10-25T03:33:42.794Z,100474.00
2022-10-25T03:36:10.483Z,100473.00
2022-10-25T03:38:37.247Z,100476.00
2022-10-25T03:41:04.387Z,100477.00
2022-10-25T03:43:31.152Z,100482.00
2022-10-25T03:45:58.620Z,100491.00
2022-10-25T03:48:25.392Z,100483.00
2022-10-25T03:50:54.170Z,100494.00
2022-10-25T03:53:21.098Z,100492.00
2022-10-25T03:55:48.267Z,100489.00
2022-10-25T03:58:15.208Z,100493.00
2022-10-25T04:00:42.047Z,100500.00
2022-10-25T04:03:09.262Z,100500.00
2022-10-25T04:05:36.078Z,100511.00
2022-10-25T04:08:02.887Z,100515.00
2022-10-25T04:10:29.689Z,100517.00
2022-10-25T04:12:56.461Z,100523.00
2022-10-25T04:15:23.721Z,100519.00
2022-10-25T04:17:51.466Z,100519.00
2022-10-25T04:20:18.948Z,100514.00
2022-10-25T04:22:45.720Z,100519.00
2022-10-25T04:25:12.472Z,100509.00
2022-10-25T04:27:39.223Z,100513.00
2022-10-25T04:30:06.606Z,100506.00
2022-10-25T04:32:33.610Z,100508.00
2022-10-25T04:35:00.485Z,100513.00
2022-10-25T04:37:27.299Z,100510.00
2022-10-25T04:39:54.214Z,100518.00
2022-10-25T04:42:20.979Z,100524.00
2022-10-25T04:44:47.847Z,100510.00
2022-10-25T04:47:14.603Z,100514.00
2022-10-25T04:49:41.430Z,100513.00
2022-10-25T04:52:08.215Z,100508.00
2022-10-25T04:54:35.008Z,100513.00
2022-10-25T04:57:01.935Z,100521.00
2022-10-25T04:59:28.725Z,100508.00
2022-10-25T05:01:55.517Z,100505.00
2022-10-25T05:04:22.415Z,100503.00
2022-10-25T05:06:49.180Z,100511.00
2022-10-25T05:09:15.926Z,100508.00
2022-10-25T05:11:42.694Z,100520.00
2022-10-25T05:14:09.430Z,100518.00
2022-10-25T05:16:36.295Z,100526.00
2022-10-25T05:19:03.140Z,100522.00
2022-10-25T05:21:31.218Z,100526.00
2022-10-25T05:24:01.792Z,100521.00
2022-10-25T05:26:29.963Z,100526.00
2022-10-25T05:28:57.007Z,100533.00
2022-10-25T05:31:26.435Z,100532.00
2022-10-25T05:33:55.868Z,100532.00
2022-10-25T05:36:22.730Z,100530.00
2022-10-25T05:38:49.759Z,100544.00
2022-10-25T05:41:17.756Z,100534.00
2022-10-25T05:43:45.214Z,100541.00
2022-10-25T05:46:20.212Z,100531.00
2022-10-25T05:48:48.909Z,100544.00
2022-10-25T05:51:33.496Z,100542.00
2022-10-25T05:54:11.396Z,100546.00
2022-10-25T05:56:38.628Z,100549.00
2022-10-25T05:59:08.883Z,100560.00
2022-10-25T06:01:38.145Z,100558.00
2022-10-25T06:04:05.217Z,100559.00
2022-10-25T06:06:32.011Z,100565.00
2022-10-25T06:09:00.399Z,100562.00
2022-10-25T06:11:28.183Z,100570.00
2022-10-25T06:13:55.127Z,100583.00
2022-10-25T06:16:22.124Z,100578.00
2022-10-25T06:18:49.399Z,100577.00
2022-10-25T06:21:18.502Z,100568.00
2022-10-25T06:23:45.955Z,100579.00
2022-10-25T06:26:32.989Z,100590.00
2022-10-25T06:29:02.425Z,100597.00
2022-10-25T06:31:29.889Z,100593.00
2022-10-25T06:33:58.506Z,100598.00
2022-10-25T06:36:27.200Z,100598.00
2022-10-25T06:38:54.344Z,100598.00
2022-10-25T06:41:27.581Z,100599.00
2022-10-25T06:43:55.275Z,100603.00
2022-10-25T06:46:24.391Z,100604.00
2022-10-25T06:48:52.533Z,100606.00
2022-10-25T06:51:19.918Z,100607.00
2022-10-25T06:53:46.831Z,100617.00
2022-10-25T06:56:15.111Z,100615.00
2022-10-25T06:58:42.353Z,100615.00
2022-10-25T07:01:15.003Z,100605.00
2022-10-25T07:03:42.762Z,100617.00
2022-10-25T07:06:21.678Z,100614.00
2022-10-25T07:08:56.134Z,100620.00
2022-10-25T07:11:23.894Z,100624.00
2022-10-25T07:13:50.670Z,100630.00
2022-10-25T07:16:19.417Z,100621.00
2022-10-25T07:18:46.573Z,100633.00
2022-10-25T07:21:15.259Z,100626.00
2022-10-25T07:23:42.648Z,100635.00
2022-10-25T07:26:13.637Z,100642.00
2022-10-25T07:28:40.799Z,100628.00
2022-10-25T07:31:08.077Z,100639.00
2022-10-25T07:33:35.235Z,100645.00
2022-10-25T07:36:17.439Z,100651.00
2022-10-25T07:38:44.672Z,100642.00
2022-10-25T07:41:11.669Z,100649.00
2022-10-25T07:43:38.481Z,100652.00
2022-10-25T07:46:06.371Z,100658.00
2022-10-25T07:48:34.008Z,100655.00
2022-10-25T07:51:06.003Z,100656.00
2022-10-25T07:53:32.970Z,100656.00
2022-10-25T07:55:59.860Z,100645.00
2022-10-25T07:58:26.647Z,100659.00
2022-10-25T08:00:53.595Z,100666.00
2022-10-25T08:03:20.403Z,100668.00
2022-10-25T08:05:48.155Z,100668.00
2022-10-25T08:08:15.327Z,100661.00
2022-10-25T08:10:43.566Z,100667.00
2022-10-25T08:13:10.811Z,100672.00
2022-10-25T08:15:38.036Z,100682.00
2022-10-25T08:18:05.492Z,100680.00
2022-10-25T08:21:00.153Z,100680.00
2022-10-25T08:23:19.153Z,100678.00
2022-10-25T08:25:46.032Z,100681.00
2022-10-25T08:28:13.086Z,100683.00
2022-10-25T08:30:43.071Z,100681.00
2022-10-25T08:33:11.810Z,100692.00
2022-10-25T08:35:39.157Z,100693.00
2022-10-25T08:38:06.179Z,100688.00
2022-10-25T08:40:43.179Z,100698.00
2022-10-25T08:43:21.174Z,100698.00
2022-10-25T08:45:57.116Z,100704.00
2022-10-25T08:48:34.018Z,100709.00
2022-10-25T08:51:11.531Z,100716.00
2022-10-25T08:53:45.622Z,100720.00
2022-10-25T08:56:16.886Z,100720.00
2022-10-25T08:59:00.112Z,100722.00
2022-10-25T09:01:48.614Z,100713.00
2022-10-25T09:04:15.834Z,100727.00
2022-10-25T09:06:51.757Z,100732.00
2022-10-25T09:09:49.083Z,100736.00
2022-10-25T09:12:23.365Z,100735.00
2022-10-25T09:15:11.471Z,100734.00
2022-10-25T09:17:51.925Z,100742.00
2022-10-25T09:20:26.984Z,100752.00
2022-10-25T09:23:07.784Z,100743.00
2022-10-25T09:26:23.013Z,100747.00
2022-10-25T09:29:27.786Z,100742.00
2022-10-25T09:32:02.092Z,100761.00
2022-10-25T09:34:39.318Z,100761.00
2022-10-25T09:38:49.642Z,100770.00
2022-10-25T09:41:30.472Z,100767.00
2022-10-25T09:45:01.428Z,100773.00
2022-10-25T09:47:42.756Z,100768.00
2022-10-25T09:50:17.584Z,100768.00
2022-10-25T09:53:01.789Z,100767.00
2022-10-25T09:55:59.972Z,100757.00
2022-10-25T09:58:32.032Z,100779.00
2022-10-25T10:01:34.121Z,100776.00
2022-10-25T10:04:21.544Z,100781.00
2022-10-25T10:06:50.720Z,100795.00
2022-10-25T10:09:18.220Z,100822.00
2022-10-25T10:11:46.462Z,100794.00
2022-10-25T10:14:37.903Z,100797.00
2022-10-25T10:17:05.806Z,100795.00
2022-10-25T10:19:32.695Z,100800.00
2022-10-25T10:22:07.528Z,100796.00
2022-10-25T10:24:46.600Z,100784.00
2022-10-25T10:27:34.001Z,100775.00
2022-10-25T10:30:08.372Z,100773.00
2022-10-25T10:32:36.858Z,100772.00
2022-10-25T10:35:06.167Z,100773.00
2022-10-25T10:37:34.296Z,100781.00
2022-10-25T10:40:01.011Z,100789.00
2022-10-25T10:42:34.138Z,100786.00
2022-10-25T10:45:13.116Z,100791.00
2022-10-25T10:47:52.036Z,100784.00
2022-10-25T10:50:25.650Z,100794.00
2022-10-25T10:53:26.470Z,100802.00
2022-10-25T10:55:54.166Z,100802.00
2022-10-25T10:58:35.601Z,100809.00
2022-10-25T11:01:08.680Z,100806.00
2022-10-25T11:03:48.898Z,100816.00
2022-10-25T11:06:29.518Z,100826.00
2022-10-25T11:09:17.664Z,100832.00
2022-10-25T11:11:45.144Z,100834.00
2022-10-25T11:14:13.822Z,100845.00
2022-10-25T11:17:08.441Z,100856.00
2022-10-25T11:19:35.206Z,100859.00
2022-10-25T11:22:23.835Z,100874.00
2022-10-25T11:25:08.780Z,100877.00
2022-10-25T11:28:06.704Z,100870.00
2022-10-25T11:30:46.843Z,100877.00
2022-10-25T11:33:28.686Z,100858.00
2022-10-25T11:36:16.710Z,100832.00
2022-10-25T11:39:04.293Z,100875.00
2022-10-25T11:41:40.278Z,100869.00
2022-10-25T11:44:52.101Z,100893.00
2022-10-25T11:47:39.896Z,100886.00
2022-10-25T11:50:28.474Z,100903.00
2022-10-25T11:53:02.739Z,100892.00
2022-10-25T11:55:41.891Z,100880.00
2022-10-25T11:58:35.096Z,100865.00
2022-10-25T12:01:31.481Z,100886.00
2022-10-25T12:08:00.413Z,100867.00
2022-10-25T12:10:38.510Z,100869.00
2022-10-25T12:13:18.015Z,100889.00
2022-10-25T12:15:50.093Z,100914.00
2022-10-25T12:18:31.461Z,100936.00
2022-10-25T12:20:58.577Z,100929.00
2022-10-25T12:23:27.364Z,100955.00
2022-10-25T12:26:00.459Z,100931.00
2022-10-25T12:28:47.738Z,100918.00
2022-10-25T12:31:19.589Z,100909.00
2022-10-25T12:33:55.203Z,100915.00
2022-10-25T12:36:27.749Z,100904.00
2022-10-25T12:38:55.119Z,100933.00
2022-10-25T12:41:24.688Z,100927.00
2022-10-25T12:44:37.687Z,100938.00
2022-10-25T12:47:17.082Z,100958.00
2022-10-25T12:50:02.404Z,100948.00
2022-10-25T12:52:39.845Z,100941.00
2022-10-25T12:55:27.777Z,100931.00
2022-10-25T12:58:09.425Z,100925.00
2022-10-25T13:01:03.432Z,100921.00
2022-10-25T13:03:48.445Z,100926.00
2022-10-25T13:06:39.897Z,100922.00
2022-10-25T13:09:13.052Z,100914.00
2022-10-25T13:12:19.732Z,100917.00
2022-10-25T13:14:55.805Z,100917.00
2022-10-25T13:17:22.535Z,100907.00
2022-10-25T13:20:15.908Z,100911.00
2022-10-25T13:22:47.094Z,100919.00
2022-10-25T13:25:13.985Z,100916.00
2022-10-25T13:28:27.017Z,100918.00
2022-10-25T13:31:13.745Z,100924.00
2022-10-25T13:33:41.043Z,100923.00
2022-10-25T13:36:09.328Z,100922.00
2022-10-25T13:38:39.557Z,100934.00
2022-10-25T13:41:09.776Z,100944.00
2022-10-25T13:43:52.456Z,100945.00
2022-10-25T13:46:23.606Z,100928.00
2022-10-25T13:48:50.398Z,100946.00
2022-10-25T13:51:17.871Z,100946.00
2022-10-25T13:53:53.421Z,100968.00
2022-10-25T13:56:23.238Z,100971.00
2022-10-25T13:58:57.630Z,100974.00
2022-10-25T14:01:25.480Z,100966.00
2022-10-25T14:04:31.308Z,100978.00
2022-10-25T14:07:36.545Z,100981.00
2022-10-25T14:10:03.785Z,100988.00
2022-10-25T14:12:30.949Z,101013.00
2022-10-25T14:15:07.623Z,100997.00
2022-10-25T14:17:39.123Z,100999.00
2022-10-25T14:20:21.080Z,101007.00
2022-10-25T14:22:54.172Z,100998.00
2022-10-25T14:25:24.346Z,101019.00
2022-10-25T14:28:12.451Z,101006.00
2022-10-25T14:30:44.360Z,101002.00
2022-10-25T14:33:31.135Z,101019.00
2022-10-25T14:36:06.806Z,101009.00
2022-10-25T14:38:48.604Z,100988.00
2022-10-25T14:41:19.405Z,101002.00
2022-10-25T14:43:47.391Z,101003.00
2022-10-25T14:46:16.278Z,101003.00
2022-10-25T14:48:46.872Z,100997.00
2022-10-25T14:51:23.156Z,100985.00
2022-10-25T14:53:58.906Z,100987.00
2022-10-25T14:56:37.179Z,100985.00
2022-10-25T14:59:06.141Z,100974.00
2022-10-25T15:01:35.261Z,100979.00
2022-10-25T15:04:02.484Z,100985.00
2022-10-25T15:06:32.420Z,100972.00
2022-10-25T15:09:36.962Z,100971.00
2022-10-25T15:12:24.848Z,100975.00
2022-10-25T15:14:54.661Z,100975.00
2022-10-25T15:17:21.333Z,100981.00
2022-10-25T15:20:17.116Z,100979.00
2022-10-25T15:22:48.701Z,100985.00
2022-10-25T15:25:21.318Z,100982.00
2022-10-25T15:28:07.083Z,100975.00
2022-10-25T15:31:03.865Z,100984.00
2022-10-25T15:33:32.109Z,100976.00
2022-10-25T15:36:04.339Z,100962.00
2022-10-25T15:38:54.355Z,100976.00
2022-10-25T15:41:20.085Z,100972.00
2022-10-25T15:43:46.837Z,100974.00
2022-10-25T15:46:33.412Z,100981.00
2022-10-25T15:49:03.449Z,100981.00
2022-10-25T15:51:32.889Z,100975.00
2022-10-25T15:53:59.794Z,100977.00
2022-10-25T15:56:27.109Z,100985.00
2022-10-25T15:58:53.857Z,100985.00
2022-10-25T16:01:21.412Z,100990.00
2022-10-25T16:03:48.244Z,100970.00
2022-10-25T16:06:15.182Z,100986.00
2022-10-25T16:08:42.327Z,100993.00
2022-10-25T16:11:15.590Z,100995.00
2022-10-25T16:13:43.370Z,100985.00
2022-10-25T16:16:38.783Z,100985.00
2022-10-25T16:19:06.460Z,100993.00
2022-10-25T16:21:33.286Z,101001.00
2022-10-25T16:24:00.068Z,101017.00
2022-10-25T16:26:34.900Z,101014.00
2022-10-25T16:29:01.716Z,101022.00
2022-10-25T16:31:28.492Z,101022.00
2022-10-25T16:33:55.261Z,101010.00
2022-10-25T16:36:22.021Z,101018.00
2022-10-25T16:38:49.757Z,101032.00
2022-10-25T16:41:29.447Z,101022.00
2022-10-25T16:43:58.097Z,101029.00
2022-10-25T16:46:26.010Z,101039.00
2022-10-25T16:48:53.589Z,101033.00
2022-10-25T16:51:22.059Z,101027.00
2022-10-25T16:53:48.954Z,101031.00
2022-10-25T16:56:16.270Z,101024.00
2022-10-25T16:58:43.425Z,101017.00
2022-10-25T17:01:29.791Z,101031.00
2022-10-25T17:03:56.761Z,101046.00
2022-10-25T17:09:10.842Z,101052.00
2022-10-25T17:11:37.756Z,101065.00
2022-10-25T17:14:04.756Z,101068.00
2022-10-25T17:16:31.632Z,101063.00
2022-10-25T17:18:58.487Z,101058.00
2022-10-25T17:21:25.359Z,101047.00
2022-10-25T17:23:52.143Z,101056.00
2022-10-25T17:26:19.012Z,101059.00
2022-10-25T17:28:45.798Z,101060.00
2022-10-25T17:31:14.258Z,101057.00
2022-10-25T17:33:42.254Z,101054.00
2022-10-25T17:36:14.551Z,101060.00
2022-10-25T17:38:41.869Z,101056.00
2022-10-25T17:41:09.530Z,101063.00
2022-10-25T17:43:37.797Z,101067.00
2022-10-25T17:46:07.847Z,101066.00
2022-10-25T17:48:41.209Z,101067.00
2022-10-25T17:51:10.054Z,101084.00
2022-10-25T17:53:36.931Z,101070.00
2022-10-25T17:56:11.199Z,101081.00
2022-10-25T17:58:38.119Z,101077.00
2022-10-25T18:01:06.099Z,101083.00
2022-10-25T18:03:33.341Z,101085.00
2022-10-25T18:06:01.781Z,101086.00
2022-10-25T18:08:28.856Z,101093.00
2022-10-25T18:10:55.748Z,101083.00
2022-10-25T18:13:24.754Z,101089.00
2022-10-25T18:15:52.113Z,101090.00
2022-10-25T18:18:19.432Z,101088.00
2022-10-25T18:20:51.361Z,101094.00
2022-10-25T18:23:19.565Z,101091.00
2022-10-25T18:25:53.053Z,101101.00
2022-10-25T18:28:20.028Z,101094.00
2022-10-25T18:30:46.775Z,101106.00
2022-10-25T18:33:14.892Z,101102.00
2022-10-25T18:35:41.878Z,101109.00
2022-10-25T18:38:08.738Z,101103.00
2022-10-25T18:40:38.603Z,101096.00
2022-10-25T18:43:08.377Z,101106.00
2022-10-25T18:45:36.092Z,101093.00
2022-10-25T18:48:02.956Z,101100.00
2022-10-25T18:50:29.781Z,101115.00
2022-10-25T18:52:56.631Z,101104.00
2022-10-25T18:55:26.618Z,101096.00
2022-10-25T18:57:54.764Z,101109.00
2022-10-25T19:00:26.216Z,101104.00
2022-10-25T19:02:55.128Z,101109.00
2022-10-25T19:05:23.297Z,101117.00
2022-10-25T19:07:50.346Z,101115.00
2022-10-25T19:10:17.677Z,101123.00
2022-10-25T19:12:44.703Z,101120.00
2022-10-25T19:15:11.532Z,101124.00
2022-10-25T19:17:38.457Z,101118.00
2022-10-25T19:20:07.506Z,101116.00
2022-10-25T19:22:34.395Z,101110.00
2022-10-25T19:25:01.196Z,101115.00
2022-10-25T19:27:29.092Z,101117.00
2022-10-25T19:29:57.815Z,101113.00
2022-10-25T19:32:24.689Z,101115.00
2022-10-25T19:37:23.291Z,101104.00
2022-10-25T19:39:50.105Z,101114.00
2022-10-25T19:42:16.894Z,101117.00
2022-10-25T19:44:44.054Z,101113.00
2022-10-25T19:47:10.916Z,101111.00
2022-10-25T19:49:37.697Z,101114.00
2022-10-25T19:52:04.569Z,101115.00
2022-10-25T19:54:31.319Z,101115.00
2022-10-25T19:56:58.696Z,101112.00
2022-10-25T19:59:25.527Z,101115.00
2022-10-25T20:01:52.413Z,101124.00
2022-10-25T20:04:19.337Z,101113.00
2022-10-25T20:06:46.172Z,101118.00
2022-10-25T20:09:13.058Z,101108.00
2022-10-25T20:11:39.963Z,101115.00
2022-10-25T20:14:06.835Z,101129.00
2022-10-25T20:16:33.688Z,101126.00
2022-10-25T20:19:01.410Z,101129.00
2022-10-25T20:21:33.610Z,101129.00
2022-10-25T20:24:03.206Z,101124.00
2022-10-25T20:26:35.170Z,101124.00
2022-10-25T20:29:04.845Z,101129.00
2022-10-25T20:31:33.202Z,101130.00
2022-10-25T20:34:01.528Z,101137.00
2022-10-25T20:36:28.359Z,101133.00
2022-10-25T20:38:55.104Z,101143.00
2022-10-25T20:41:24.349Z,101128.00
2022-10-25T20:43:53.263Z,101143.00
2022-10-25T20:46:21.425Z,101143.00
2022-10-25T20:48:48.209Z,101143.00
2022-10-25T20:51:15.857Z,101133.00
2022-10-25T20:53:44.228Z,101134.00
2022-10-25T20:56:12.449Z,101136.00
2022-10-25T20:58:39.422Z,101138.00
2022-10-25T21:01:06.408Z,101134.00
2022-10-25T21:03:33.706Z,101140.00
2022-10-25T21:06:03.514Z,101150.00
2022-10-25T21:08:30.682Z,101150.00
2022-10-25T21:10:59.339Z,101149.00
2022-10-25T21:13:27.410Z,101140.00
2022-10-25T21:15:54.364Z,101142.00
2022-10-25T21:18:21.336Z,101141.00
2022-10-25T21:20:48.833Z,101136.00
2022-10-25T21:23:15.789Z,101142.00
2022-10-25T21:25:42.803Z,101144.00
2022-10-25T21:28:09.614Z,101148.00
2022-10-25T21:30:36.416Z,101156.00
2022-10-25T21:33:04.157Z,101155.00
2022-10-25T21:35:31.857Z,101149.00
2022-10-25T21:38:06.540Z,101154.00
2022-10-25T21:40:33.543Z,101159.00
2022-10-25T21:43:00.373Z,101148.00
2022-10-25T21:45:27.285Z,101142.00
2022-10-25T21:47:54.291Z,101151.00
2022-10-25T21:50:21.234Z,101152.00
2022-10-25T21:52:48.244Z,101152.00
2022-10-25T21:55:15.120Z,101160.00
2022-10-25T21:57:41.861Z,101167.00
2022-10-25T22:00:09.516Z,101161.00
2022-10-25T22:02:36.505Z,101168.00
2022-10-25T22:05:03.526Z,101166.00
2022-10-25T22:07:30.249Z,101163.00
2022-10-25T22:09:56.994Z,101170.00
2022-10-25T22:12:23.736Z,101166.00
2022-10-25T22:14:50.524Z,101169.00
2022-10-25T22:17:17.512Z,101169.00
2022-10-25T22:19:44.275Z,101166.00
2022-10-25T22:22:10.994Z,101165.00
2022-10-25T22:24:37.863Z,101170.00
2022-10-25T22:27:04.731Z,101184.00
2022-10-25T22:29:31.561Z,101164.00
2022-10-25T22:31:58.312Z,101173.00
2022-10-25T22:34:25.093Z,101166.00
2022-10-25T22:36:51.861Z,101167.00
2022-10-25T22:39:18.623Z,101165.00
2022-10-25T22:41:46.217Z,101166.00
2022-10-25T22:44:13.040Z,101162.00
2022-10-25T22:46:39.897Z,101159.00
2022-10-25T22:49:08.578Z,101166.00
2022-10-25T22:51:36.482Z,101171.00
2022-10-25T22:54:03.488Z,101171.00
2022-10-25T22:56:31.020Z,101175.00
2022-10-25T22:59:00.254Z,101171.00
2022-10-25T23:01:31.999Z,101179.00
2022-10-25T23:04:00.158Z,101178.00
2022-10-25T23:06:29.588Z,101169.00
2022-10-25T23:08:57.705Z,101180.00
2022-10-25T23:11:26.589Z,101164.00
2022-10-25T23:13:53.503Z,101178.00
2022-10-25T23:16:20.526Z,101171.00
2022-10-25T23:18:47.328Z,101176.00
2022-10-25T23:21:27.824Z,101178.00
2022-10-25T23:23:56.040Z,101169.00
2022-10-25T23:26:25.488Z,101172.00
2022-10-25T23:28:52.633Z,101174.00
2022-10-25T23:31:19.563Z,101170.00
2022-10-25T23:33:49.854Z,101169.00
2022-10-25T23:36:19.393Z,101167.00
2022-10-25T23:38:47.376Z,101173.00
2022-10-25T23:41:14.792Z,101166.00
2022-10-25T23:43:41.562Z,101164.00
2022-10-25T23:46:09.084Z,101157.00
2022-10-25T23:48:36.050Z,101164.00
2022-10-25T23:51:08.235Z,101173.00
2022-10-25T23:53:35.415Z,101157.00
2022-10-25T23:56:03.366Z,101170.00
2022-10-25T23:58:30.197Z,101165.00
